Terminal Aerodrome Forecast
Issued by NWS

Home | Current Version | Previous Version | Text Only | Print | Product List | Glossary On
Versions: 1 2 3 4 5 6 7 8 9 10 11 12 13 14 15 16 17
000
FTUS44 KEPZ 280500 RRA
TAFTCS
TAF
KTCS 280542Z 2806/0106 13007KT P6SM SCT060 BKN250
     FM281200 16006KT P6SM BKN200
     FM281800 20014G24KT P6SM SCT070 BKN250
     FM282100 23017G27KT P6SM BKN060 BKN250
     FM010200 23008KT P6SM SCT050 SCT250=

USA.gov is the U.S. government's official web portal to all federal, state and local government web resources and services.